createdAt,value
2024-02-09T00:02:07.912Z,93.11
2024-02-09T00:04:39.626Z,93.05
2024-02-09T00:07:09.351Z,92.98
2024-02-09T00:09:38.138Z,92.60
2024-02-09T00:12:07.799Z,92.84
2024-02-09T00:14:37.165Z,92.13
2024-02-09T00:17:05.788Z,92.17
2024-02-09T00:19:35.087Z,93.01
2024-02-09T00:22:05.671Z,92.87
2024-02-09T00:24:34.602Z,93.05
2024-02-09T00:27:06.011Z,92.89
2024-02-09T00:29:34.811Z,92.51
2024-02-09T00:32:05.736Z,92.41
2024-02-09T00:34:36.439Z,92.38
2024-02-09T00:37:07.973Z,92.32
2024-02-09T00:39:36.587Z,92.44
2024-02-09T00:42:05.609Z,92.98
2024-02-09T00:44:34.482Z,93.08
2024-02-09T00:47:03.423Z,93.17
2024-02-09T00:49:33.699Z,93.26
2024-02-09T00:52:03.259Z,93.38
2024-02-09T00:54:31.814Z,93.63
2024-02-09T00:57:00.434Z,93.32
2024-02-09T00:59:28.964Z,92.83
2024-02-09T01:24:01.419Z,91.32
2024-02-09T01:26:48.609Z,90.88
2024-02-09T01:29:36.559Z,91.14
2024-02-09T01:32:23.900Z,91.74
2024-02-09T01:35:11.176Z,92.22
2024-02-09T01:37:58.358Z,92.34
2024-02-09T01:40:45.120Z,93.01
2024-02-09T01:43:32.268Z,92.87
2024-02-09T01:46:19.161Z,93.37
2024-02-09T01:49:05.974Z,93.11
2024-02-09T01:51:53.646Z,93.21
2024-02-09T01:54:41.808Z,92.71
2024-02-09T01:57:29.253Z,92.69
2024-02-09T02:00:17.142Z,92.68
2024-02-09T02:03:04.499Z,92.92
2024-02-09T02:05:52.521Z,92.96
2024-02-09T02:08:40.845Z,92.58
2024-02-09T02:11:27.473Z,91.97
2024-02-09T02:14:14.386Z,91.65
2024-02-09T02:17:01.221Z,91.44
2024-02-09T02:19:48.703Z,91.34
2024-02-09T02:22:46.298Z,91.12
2024-02-09T02:25:33.421Z,90.85
2024-02-09T02:28:20.886Z,90.54
2024-02-09T02:31:08.003Z,90.65
2024-02-09T02:33:55.051Z,90.95
2024-02-09T02:36:42.142Z,90.72
2024-02-09T02:39:29.144Z,90.27
2024-02-09T02:41:57.828Z,90.36
2024-02-09T02:44:26.352Z,90.49
2024-02-09T02:46:55.041Z,90.28
2024-02-09T02:49:41.934Z,90.66
2024-02-09T02:52:28.788Z,90.39
2024-02-09T02:55:15.925Z,90.41
2024-02-09T02:58:02.946Z,90.52
2024-02-09T03:00:49.952Z,90.30
2024-02-09T03:03:36.931Z,89.75
2024-02-09T03:06:07.401Z,89.25
2024-02-09T03:08:47.052Z,89.29
2024-02-09T03:11:18.501Z,87.83
2024-02-09T03:13:51.335Z,88.08
2024-02-09T03:16:20.761Z,88.39
2024-02-09T03:18:49.436Z,88.47
2024-02-09T03:21:28.041Z,88.63
2024-02-09T03:23:57.809Z,88.66
2024-02-09T03:26:26.651Z,88.19
2024-02-09T03:28:55.120Z,87.49
2024-02-09T03:31:25.770Z,86.38
2024-02-09T03:33:56.850Z,85.79
2024-02-09T03:36:25.626Z,85.27
2024-02-09T03:38:55.536Z,84.51
2024-02-09T03:41:26.944Z,83.86
2024-02-09T03:43:55.732Z,83.53
2024-02-09T03:46:26.847Z,84.27
2024-02-09T03:48:55.788Z,83.69
2024-02-09T03:51:26.518Z,83.07
2024-02-09T03:53:55.117Z,83.76
2024-02-09T03:56:24.030Z,82.78
2024-02-09T03:58:52.765Z,82.08
2024-02-09T04:01:24.459Z,82.36
2024-02-09T04:03:53.343Z,81.19
2024-02-09T04:06:25.894Z,80.80
2024-02-09T04:08:56.042Z,78.69
2024-02-09T04:11:25.442Z,79.44
2024-02-09T04:13:54.355Z,80.69
2024-02-09T04:16:23.183Z,79.78
2024-02-09T04:18:52.026Z,80.67
2024-02-09T04:21:20.621Z,80.16
2024-02-09T04:23:49.654Z,79.31
2024-02-09T04:26:18.306Z,80.04
2024-02-09T04:28:47.136Z,81.11
2024-02-09T04:31:16.011Z,81.49
2024-02-09T04:33:44.683Z,81.52
2024-02-09T04:36:13.478Z,81.17
2024-02-09T04:38:42.623Z,80.34
2024-02-09T04:41:11.196Z,80.63
2024-02-09T04:43:39.786Z,80.83
2024-02-09T04:46:08.790Z,80.64
2024-02-09T04:48:37.576Z,79.39
2024-02-09T04:51:10.358Z,78.34
2024-02-09T04:53:39.482Z,78.30
2024-02-09T04:56:08.025Z,78.18
2024-02-09T04:58:39.108Z,78.31
2024-02-09T05:01:10.068Z,78.63
2024-02-09T05:03:42.031Z,79.18
2024-02-09T05:06:10.783Z,78.88
2024-02-09T05:08:40.749Z,79.61
2024-02-09T05:11:09.672Z,79.48
2024-02-09T05:13:39.086Z,79.92
2024-02-09T05:16:12.315Z,79.56
2024-02-09T05:18:41.952Z,79.47
2024-02-09T05:21:12.849Z,79.14
2024-02-09T05:23:42.867Z,79.00
2024-02-09T05:26:12.414Z,79.03
2024-02-09T05:28:46.151Z,78.69
2024-02-09T05:31:24.515Z,78.77
2024-02-09T05:33:53.765Z,78.83
2024-02-09T05:36:24.991Z,78.31
2024-02-09T05:39:02.331Z,78.58
2024-02-09T05:41:32.140Z,78.66
2024-02-09T05:44:01.430Z,79.20
2024-02-09T05:46:30.333Z,79.05
2024-02-09T05:48:59.485Z,78.54
2024-02-09T05:51:28.263Z,78.40
2024-02-09T05:53:58.295Z,77.80
2024-02-09T05:56:29.191Z,78.18
2024-02-09T05:58:58.496Z,77.65
2024-02-09T06:01:34.554Z,77.98
2024-02-09T06:04:03.622Z,77.50
2024-02-09T06:06:32.536Z,78.35
2024-02-09T06:09:03.218Z,79.13
2024-02-09T06:11:31.772Z,79.11
2024-02-09T06:14:02.333Z,78.93
2024-02-09T06:16:32.361Z,78.24
2024-02-09T06:19:01.506Z,78.17
2024-02-09T06:21:30.161Z,78.48
2024-02-09T06:23:58.862Z,77.72
2024-02-09T06:26:27.499Z,77.69
2024-02-09T06:28:56.124Z,77.81
2024-02-09T06:31:28.664Z,77.69
2024-02-09T06:34:00.686Z,78.33
2024-02-09T06:36:31.172Z,78.46
2024-02-09T06:39:00.853Z,77.49
2024-02-09T06:41:30.778Z,74.93
2024-02-09T06:44:00.104Z,73.96
2024-02-09T06:46:28.908Z,74.04
2024-02-09T06:48:58.160Z,73.74
2024-02-09T06:51:26.895Z,73.36
2024-02-09T06:53:56.793Z,74.62
2024-02-09T06:56:25.744Z,73.89
2024-02-09T06:58:59.699Z,74.25
2024-02-09T07:01:32.731Z,73.73
2024-02-09T07:04:01.503Z,73.47
2024-02-09T07:06:30.167Z,73.34
2024-02-09T07:08:59.662Z,73.50
2024-02-09T07:11:50.330Z,73.66
2024-02-09T07:14:27.138Z,72.23
2024-02-09T07:17:09.654Z,72.22
2024-02-09T07:19:39.863Z,72.53
2024-02-09T07:22:14.406Z,71.73
2024-02-09T07:24:46.064Z,68.74
2024-02-09T07:27:25.297Z,67.15
2024-02-09T07:29:58.948Z,65.87
2024-02-09T07:32:37.441Z,65.73
2024-02-09T07:35:25.590Z,64.09
2024-02-09T07:37:59.038Z,64.55
2024-02-09T07:40:27.706Z,63.99
2024-02-09T07:42:58.497Z,62.02
2024-02-09T07:45:33.624Z,62.31
2024-02-09T07:48:11.245Z,61.87
2024-02-09T07:51:00.881Z,61.08
2024-02-09T07:53:35.721Z,60.36
2024-02-09T07:56:11.090Z,61.53
2024-02-09T07:58:53.213Z,61.65
2024-02-09T08:01:25.160Z,60.81
2024-02-09T08:04:03.568Z,61.16
2024-02-09T08:06:42.484Z,61.80
2024-02-09T08:09:26.361Z,63.90
2024-02-09T08:11:59.354Z,63.20
2024-02-09T08:14:29.982Z,63.01
2024-02-09T08:17:21.358Z,63.58
2024-02-09T08:19:52.778Z,61.16
2024-02-09T08:22:24.358Z,62.85
2024-02-09T08:24:57.490Z,62.84
2024-02-09T08:27:26.727Z,62.36
2024-02-09T08:30:05.937Z,62.17
2024-02-09T08:32:37.230Z,60.44
2024-02-09T08:35:07.637Z,59.41
2024-02-09T08:37:38.464Z,59.92
2024-02-09T08:40:11.608Z,60.56
2024-02-09T08:42:41.860Z,58.99
2024-02-09T08:45:11.777Z,60.48
2024-02-09T08:47:40.891Z,60.80
2024-02-09T08:50:09.872Z,58.23
2024-02-09T08:52:39.513Z,57.36
2024-02-09T08:55:11.159Z,58.03
2024-02-09T08:57:42.129Z,57.18
2024-02-09T09:00:21.287Z,57.41
2024-02-09T09:02:51.751Z,56.24
2024-02-09T09:05:20.484Z,55.70
2024-02-09T09:07:58.825Z,55.33
2024-02-09T09:10:28.059Z,56.27
2024-02-09T09:13:01.197Z,54.99
2024-02-09T09:15:29.968Z,55.16
2024-02-09T09:18:02.504Z,55.21
2024-02-09T09:20:31.078Z,54.77
2024-02-09T09:22:59.829Z,54.80
2024-02-09T09:25:43.321Z,55.28
2024-02-09T09:28:33.134Z,54.51
2024-02-09T09:31:02.350Z,54.84
2024-02-09T09:33:30.785Z,53.58
2024-02-09T09:36:04.308Z,53.80
2024-02-09T09:38:32.746Z,52.97
2024-02-09T09:41:01.178Z,53.10
2024-02-09T09:43:32.571Z,52.48
2024-02-09T09:46:02.117Z,52.01
2024-02-09T09:48:34.831Z,52.18
2024-02-09T09:51:21.821Z,51.91
2024-02-09T09:53:54.886Z,52.05
2024-02-09T09:56:38.035Z,51.85
2024-02-09T09:59:08.236Z,52.36
2024-02-09T10:01:50.422Z,52.99
2024-02-09T10:04:20.063Z,52.09
2024-02-09T10:06:52.140Z,51.73
2024-02-09T10:09:26.770Z,51.83
2024-02-09T10:11:55.923Z,51.32
2024-02-09T10:14:25.214Z,50.64
2024-02-09T10:16:58.302Z,51.05
2024-02-09T10:19:26.991Z,50.53
2024-02-09T10:21:58.795Z,50.27
2024-02-09T10:24:48.819Z,49.72
2024-02-09T10:27:23.916Z,50.27
2024-02-09T10:29:56.211Z,49.98
2024-02-09T10:32:44.072Z,50.29
2024-02-09T10:35:12.742Z,50.67
2024-02-09T10:38:02.126Z,49.88
2024-02-09T10:40:31.206Z,50.25
2024-02-09T10:43:13.880Z,49.68
2024-02-09T10:45:45.683Z,49.51
2024-02-09T10:48:21.383Z,49.14
2024-02-09T10:50:55.802Z,49.21
2024-02-09T10:53:28.437Z,49.18
2024-02-09T10:56:05.130Z,48.80
2024-02-09T10:58:35.436Z,48.25
2024-02-09T11:01:07.347Z,49.10
2024-02-09T11:03:35.935Z,48.55
2024-02-09T11:06:06.240Z,48.74
2024-02-09T11:08:35.645Z,48.53
2024-02-09T11:11:05.451Z,48.59
2024-02-09T11:13:35.471Z,48.39
2024-02-09T11:16:04.588Z,48.55
2024-02-09T11:18:37.565Z,48.26
2024-02-09T11:21:08.568Z,47.91
2024-02-09T11:23:38.980Z,48.13
2024-02-09T11:26:12.345Z,47.75
2024-02-09T11:28:41.890Z,47.13
2024-02-09T11:31:12.426Z,47.38
2024-02-09T11:33:43.187Z,47.25
2024-02-09T11:36:11.834Z,46.55
2024-02-09T11:38:40.484Z,46.35
2024-02-09T11:41:10.065Z,46.30
2024-02-09T11:43:38.681Z,45.79
2024-02-09T11:46:08.732Z,45.59
2024-02-09T11:48:40.728Z,46.14
2024-02-09T11:51:09.170Z,45.79
2024-02-09T11:53:39.227Z,46.08
2024-02-09T11:56:08.549Z,46.07
2024-02-09T11:58:37.823Z,46.78
2024-02-09T12:01:06.630Z,46.27
2024-02-09T12:03:35.512Z,46.33
2024-02-09T12:06:07.131Z,46.46
2024-02-09T12:08:36.017Z,46.70
2024-02-09T12:11:07.651Z,46.29
2024-02-09T12:13:40.299Z,46.34
2024-02-09T12:16:09.072Z,46.36
2024-02-09T12:18:37.366Z,46.21
2024-02-09T12:23:53.119Z,46.42
2024-02-09T12:26:26.177Z,45.56
2024-02-09T12:28:55.577Z,45.39
2024-02-09T12:31:26.111Z,44.72
2024-02-09T12:33:56.451Z,45.16
2024-02-09T12:36:43.403Z,44.49
2024-02-09T12:39:13.536Z,44.32
2024-02-09T12:41:58.207Z,44.11
2024-02-09T12:44:33.913Z,43.48
2024-02-09T12:47:08.729Z,43.02
2024-02-09T12:49:38.745Z,43.30
2024-02-09T12:52:19.539Z,43.24
2024-02-09T12:54:56.402Z,43.13
2024-02-09T12:57:25.491Z,42.54
2024-02-09T12:59:54.756Z,42.94
2024-02-09T13:23:39.498Z,44.64
2024-02-09T13:26:19.540Z,44.11
2024-02-09T13:28:48.309Z,44.45
2024-02-09T13:31:15.807Z,44.64
2024-02-09T13:33:45.283Z,44.32
2024-02-09T13:36:24.862Z,43.78
2024-02-09T13:38:54.460Z,43.53
2024-02-09T13:41:22.733Z,43.82
2024-02-09T13:43:52.532Z,43.74
2024-02-09T13:46:48.272Z,43.80
2024-02-09T13:49:15.986Z,44.15
2024-02-09T13:51:45.251Z,44.49
2024-02-09T13:54:27.400Z,44.82
2024-02-09T13:57:05.340Z,44.57
2024-02-09T13:59:36.801Z,45.03
2024-02-09T14:02:04.820Z,44.68
2024-02-09T14:04:39.791Z,44.96
2024-02-09T14:07:28.186Z,45.04
2024-02-09T14:09:56.388Z,45.08
2024-02-09T14:12:30.194Z,45.24
2024-02-09T14:14:57.505Z,45.14
2024-02-09T14:17:27.095Z,45.51
2024-02-09T14:19:54.852Z,45.14
2024-02-09T14:22:22.221Z,45.50
2024-02-09T14:25:04.710Z,45.34
2024-02-09T14:27:35.830Z,45.53
2024-02-09T14:30:11.491Z,45.84
2024-02-09T14:32:56.490Z,45.38
2024-02-09T14:35:28.058Z,46.21
2024-02-09T14:38:03.801Z,47.07
2024-02-09T14:41:02.999Z,47.25
2024-02-09T14:43:42.350Z,47.30
2024-02-09T14:49:53.246Z,47.10
2024-02-09T14:52:31.252Z,47.61
2024-02-09T14:55:29.284Z,47.08
2024-02-09T14:58:06.050Z,47.74
2024-02-09T15:00:39.122Z,48.19
2024-02-09T15:03:11.412Z,48.44
2024-02-09T15:05:46.426Z,48.53
2024-02-09T15:08:22.744Z,48.45
2024-02-09T15:10:55.030Z,48.72
2024-02-09T15:13:29.196Z,49.06
2024-02-09T15:16:05.126Z,48.92
2024-02-09T15:18:42.495Z,48.91
2024-02-09T15:21:19.452Z,49.31
2024-02-09T15:23:55.910Z,49.30
2024-02-09T15:26:33.141Z,49.55
2024-02-09T15:29:06.198Z,49.69
2024-02-09T15:31:35.421Z,49.09
2024-02-09T15:34:13.358Z,49.69
2024-02-09T15:36:48.463Z,49.73
2024-02-09T15:39:17.154Z,49.92
2024-02-09T15:41:46.747Z,50.25
2024-02-09T15:44:15.985Z,50.05
2024-02-09T15:46:50.404Z,50.14
2024-02-09T15:49:33.022Z,51.12
2024-02-09T15:52:02.937Z,50.98
2024-02-09T15:54:32.552Z,51.14
2024-02-09T15:57:11.190Z,51.26
2024-02-09T15:59:49.037Z,51.35
2024-02-09T16:02:20.962Z,51.55
2024-02-09T16:04:54.737Z,52.09
2024-02-09T16:07:23.634Z,51.98
2024-02-09T16:09:56.140Z,52.14
2024-02-09T16:12:35.277Z,52.06
2024-02-09T16:15:06.741Z,52.46
2024-02-09T16:17:52.994Z,52.73
2024-02-09T16:20:26.439Z,52.98
2024-02-09T16:22:55.472Z,53.26
2024-02-09T16:25:24.682Z,53.71
2024-02-09T16:27:54.609Z,53.87
2024-02-09T16:30:25.392Z,54.16
2024-02-09T16:33:07.615Z,54.36
2024-02-09T16:35:49.902Z,54.42
2024-02-09T16:38:18.719Z,54.33
2024-02-09T16:40:48.369Z,54.12
2024-02-09T16:43:20.143Z,54.37
2024-02-09T16:45:48.798Z,54.54
2024-02-09T16:48:17.523Z,54.66
2024-02-09T16:50:49.607Z,54.84
2024-02-09T16:53:18.294Z,55.03
2024-02-09T16:55:47.100Z,55.24
2024-02-09T16:58:15.889Z,55.45
2024-02-09T17:00:53.186Z,55.93
2024-02-09T17:03:31.123Z,55.86
2024-02-09T17:05:59.919Z,56.17
2024-02-09T17:08:34.794Z,56.22
2024-02-09T17:11:20.221Z,56.52
2024-02-09T17:14:11.804Z,56.74
2024-02-09T17:17:03.030Z,57.81
2024-02-09T17:19:36.956Z,57.66
2024-02-09T17:22:10.646Z,57.61
2024-02-09T17:24:41.589Z,57.56
2024-02-09T17:27:12.309Z,57.28
2024-02-09T17:29:53.827Z,57.03
2024-02-09T17:32:37.090Z,57.31
2024-02-09T17:35:07.886Z,57.79
2024-02-09T17:37:37.187Z,57.87
2024-02-09T17:40:07.086Z,57.97
2024-02-09T17:42:35.833Z,58.65
2024-02-09T17:45:05.437Z,58.85
2024-02-09T17:47:36.620Z,59.03
2024-02-09T17:50:07.135Z,59.35
2024-02-09T17:52:36.391Z,59.52
2024-02-09T17:55:06.262Z,60.98
2024-02-09T17:57:35.313Z,61.88
2024-02-09T18:00:07.327Z,63.10
2024-02-09T18:02:36.083Z,62.29
2024-02-09T18:05:17.121Z,61.76
2024-02-09T18:07:46.222Z,62.91
2024-02-09T18:10:18.857Z,62.65
2024-02-09T18:12:48.344Z,64.46
2024-02-09T18:15:21.437Z,65.90
2024-02-09T18:17:51.150Z,66.55
2024-02-09T18:20:23.273Z,65.63
2024-02-09T18:22:52.915Z,66.35
2024-02-09T18:25:23.141Z,66.73
2024-02-09T18:27:52.294Z,65.72
2024-02-09T18:30:22.154Z,65.73
2024-02-09T18:32:58.472Z,65.28
2024-02-09T18:35:30.468Z,65.39
2024-02-09T18:38:00.911Z,65.94
2024-02-09T18:40:29.931Z,65.60
2024-02-09T18:43:00.213Z,65.75
2024-02-09T18:45:29.255Z,66.10
2024-02-09T18:47:57.955Z,66.89
2024-02-09T18:50:27.763Z,67.05
2024-02-09T18:52:56.359Z,67.38
2024-02-09T18:56:06.123Z,67.72
2024-02-09T18:58:37.731Z,67.20
2024-02-09T19:01:11.801Z,66.19
2024-02-09T19:03:44.270Z,66.66
2024-02-09T19:06:12.798Z,65.62
2024-02-09T19:08:43.570Z,64.52
2024-02-09T19:11:14.064Z,64.41
2024-02-09T19:13:43.398Z,65.04
2024-02-09T19:16:13.188Z,64.97
2024-02-09T19:18:42.016Z,65.32
2024-02-09T19:21:15.332Z,65.62
2024-02-09T19:23:46.479Z,66.04
2024-02-09T19:26:15.173Z,66.44
2024-02-09T19:28:44.660Z,67.41
2024-02-09T19:31:16.265Z,66.99
2024-02-09T19:33:53.089Z,68.17
2024-02-09T19:36:24.111Z,67.19
2024-02-09T19:38:52.906Z,66.58
2024-02-09T19:41:24.848Z,66.70
2024-02-09T19:43:54.102Z,66.87
2024-02-09T19:46:25.227Z,66.77
2024-02-09T19:49:06.077Z,66.29
2024-02-09T19:51:39.401Z,65.56
2024-02-09T19:54:08.260Z,65.26
2024-02-09T19:56:36.989Z,64.95
2024-02-09T19:59:07.886Z,65.36
2024-02-09T20:01:36.902Z,65.00
2024-02-09T20:04:11.464Z,65.91
2024-02-09T20:06:46.351Z,67.12
2024-02-09T20:09:16.281Z,68.21
2024-02-09T20:12:13.092Z,69.19
2024-02-09T20:14:46.110Z,70.18
2024-02-09T20:17:17.448Z,69.82
2024-02-09T20:19:46.608Z,69.73
2024-02-09T20:22:15.760Z,70.51
2024-02-09T20:24:50.812Z,71.31
2024-02-09T20:27:20.276Z,72.25
2024-02-09T20:29:51.613Z,72.64
2024-02-09T20:32:21.985Z,72.91
2024-02-09T20:34:52.401Z,73.13
2024-02-09T20:37:23.452Z,73.97
2024-02-09T20:39:52.921Z,74.45
2024-02-09T20:42:22.506Z,74.64
2024-02-09T20:44:51.681Z,75.23
2024-02-09T20:47:23.900Z,74.75
2024-02-09T20:53:37.886Z,74.11
2024-02-09T20:56:07.957Z,74.12
2024-02-09T20:58:41.710Z,73.65
2024-02-09T21:01:11.785Z,73.21
2024-02-09T21:03:41.173Z,73.67
2024-02-09T21:06:13.558Z,72.80
2024-02-09T21:08:42.634Z,72.82
2024-02-09T21:11:12.133Z,73.40
2024-02-09T21:13:42.227Z,73.65
2024-02-09T21:16:12.466Z,73.57
2024-02-09T21:18:41.924Z,74.00
2024-02-09T21:21:12.583Z,74.01
2024-02-09T21:23:41.819Z,74.64
2024-02-09T21:26:10.755Z,74.46
2024-02-09T21:28:39.594Z,74.13
2024-02-09T21:31:08.554Z,74.14
2024-02-09T21:33:38.014Z,74.79
2024-02-09T21:36:08.189Z,74.41
2024-02-09T21:38:37.312Z,74.25
2024-02-09T21:41:06.081Z,74.19
2024-02-09T21:43:36.676Z,73.98
2024-02-09T21:46:07.027Z,73.79
2024-02-09T21:48:40.039Z,74.23
2024-02-09T21:51:10.855Z,75.00
2024-02-09T21:53:39.657Z,74.86
2024-02-09T21:56:11.506Z,75.20
2024-02-09T21:58:41.722Z,75.97
2024-02-09T22:01:10.635Z,75.96
2024-02-09T22:03:39.572Z,76.26
2024-02-09T22:06:08.397Z,76.41
2024-02-09T22:08:40.485Z,76.70
2024-02-09T22:11:12.418Z,77.32
2024-02-09T22:13:41.863Z,77.50
2024-02-09T22:16:10.950Z,77.77
2024-02-09T22:18:39.907Z,77.87
2024-02-09T22:21:10.113Z,78.34
2024-02-09T22:23:43.939Z,78.16
2024-02-09T22:26:15.902Z,79.55
2024-02-09T22:28:44.971Z,80.29
2024-02-09T22:31:38.160Z,79.85
2024-02-09T22:34:08.505Z,79.99
2024-02-09T22:36:37.291Z,78.62
2024-02-09T22:39:06.736Z,79.39
2024-02-09T22:41:36.700Z,79.73
2024-02-09T22:44:05.569Z,80.27
2024-02-09T22:46:35.310Z,80.37
2024-02-09T22:49:04.165Z,80.70
2024-02-09T22:51:33.488Z,80.95
2024-02-09T22:54:03.183Z,81.79
2024-02-09T22:56:32.043Z,82.17
2024-02-09T22:59:02.056Z,81.95
2024-02-09T23:01:31.603Z,82.45
2024-02-09T23:04:01.110Z,82.42
2024-02-09T23:06:32.022Z,83.08
2024-02-09T23:09:01.854Z,84.23
2024-02-09T23:11:30.675Z,85.20
2024-02-09T23:14:02.172Z,85.77
2024-02-09T23:16:30.844Z,86.09
2024-02-09T23:19:00.017Z,85.60
2024-02-09T23:21:30.993Z,85.61
2024-02-09T23:23:59.901Z,86.01
2024-02-09T23:26:29.036Z,86.24
2024-02-09T23:28:57.936Z,86.16
2024-02-09T23:31:32.265Z,86.55
2024-02-09T23:34:03.292Z,87.45
2024-02-09T23:36:34.559Z,88.32
2024-02-09T23:39:06.669Z,88.15
2024-02-09T23:41:36.722Z,88.89
2024-02-09T23:44:06.269Z,89.29
2024-02-09T23:46:37.121Z,90.17
2024-02-09T23:49:07.394Z,89.73
2024-02-09T23:51:38.011Z,90.89
2024-02-09T23:54:06.773Z,91.28
2024-02-09T23:56:36.179Z,92.09
2024-02-09T23:59:05.655Z,92.03
